createdAt,value
2018-07-16T00:01:34.984Z,17.70
2018-07-16T00:04:03.875Z,17.70
2018-07-16T00:06:32.410Z,17.70
2018-07-16T00:09:01.263Z,17.70
2018-07-16T00:11:29.880Z,17.60
2018-07-16T00:13:58.723Z,17.50
2018-07-16T00:16:27.254Z,17.50
2018-07-16T00:18:55.997Z,17.60
2018-07-16T00:21:24.528Z,17.50
2018-07-16T00:23:53.128Z,17.60
2018-07-16T00:26:21.685Z,17.60
2018-07-16T00:28:50.375Z,17.50
2018-07-16T00:31:18.990Z,17.50
2018-07-16T00:33:47.551Z,17.40
2018-07-16T00:36:16.083Z,17.40
2018-07-16T00:38:44.792Z,17.40
2018-07-16T00:41:13.359Z,17.40
2018-07-16T00:43:42.085Z,17.30
2018-07-16T00:46:10.642Z,17.30
2018-07-16T00:48:39.461Z,17.30
2018-07-16T00:51:08.009Z,17.20
2018-07-16T00:53:36.594Z,17.20
2018-07-16T00:56:05.143Z,17.20
2018-07-16T00:58:33.739Z,17.20
2018-07-16T01:01:02.263Z,17.30
2018-07-16T01:03:30.824Z,17.20
2018-07-16T01:05:59.623Z,17.20
2018-07-16T01:08:28.471Z,17.20
2018-07-16T01:10:56.984Z,17.20
2018-07-16T01:13:25.505Z,17.10
2018-07-16T01:15:54.034Z,17.10
2018-07-16T01:18:22.551Z,17.10
2018-07-16T01:20:51.120Z,17.10
2018-07-16T01:23:19.877Z,17.10
2018-07-16T01:25:48.389Z,17.10
2018-07-16T01:28:17.018Z,17.10
2018-07-16T01:30:45.630Z,17.10
2018-07-16T01:35:42.590Z,17.10
2018-07-16T01:38:11.124Z,17.20
2018-07-16T01:40:39.739Z,17.20
2018-07-16T01:43:08.490Z,17.20
2018-07-16T01:45:37.011Z,17.20
2018-07-16T01:48:05.767Z,17.20
2018-07-16T01:50:34.297Z,17.20
2018-07-16T01:53:03.049Z,17.20
2018-07-16T01:55:31.580Z,17.20
2018-07-16T01:58:00.317Z,17.20
2018-07-16T02:00:28.857Z,17.20
2018-07-16T02:02:57.384Z,17.10
2018-07-16T02:05:25.981Z,17.10
2018-07-16T02:07:54.636Z,17.20
2018-07-16T02:10:23.147Z,17.20
2018-07-16T02:12:51.966Z,17.20
2018-07-16T02:15:20.500Z,17.20
2018-07-16T02:17:49.233Z,17.10
2018-07-16T02:20:17.779Z,17.00
2018-07-16T02:22:46.344Z,17.10
2018-07-16T02:25:14.944Z,17.00
2018-07-16T02:27:43.487Z,16.90
2018-07-16T02:30:12.005Z,16.90
2018-07-16T02:32:40.736Z,16.90
2018-07-16T02:35:09.365Z,16.90
2018-07-16T02:37:37.916Z,16.80
2018-07-16T02:40:06.500Z,16.70
2018-07-16T02:42:35.308Z,16.70
2018-07-16T02:45:03.873Z,16.70
2018-07-16T02:47:32.696Z,16.70
2018-07-16T02:50:01.241Z,16.70
2018-07-16T02:52:30.172Z,16.70
2018-07-16T02:54:58.715Z,16.70
2018-07-16T02:57:27.447Z,16.70
2018-07-16T02:59:56.069Z,16.60
2018-07-16T03:02:24.711Z,16.60
2018-07-16T03:04:53.282Z,16.50
2018-07-16T03:07:22.006Z,16.60
2018-07-16T03:09:50.566Z,16.50
2018-07-16T03:12:19.365Z,16.40
2018-07-16T03:14:47.844Z,16.40
2018-07-16T03:17:16.556Z,16.40
2018-07-16T03:19:45.067Z,16.40
2018-07-16T03:22:13.643Z,16.40
2018-07-16T03:24:42.231Z,16.40
2018-07-16T03:27:10.988Z,16.40
2018-07-16T03:29:39.498Z,16.30
2018-07-16T03:32:08.373Z,16.40
2018-07-16T03:34:36.911Z,16.40
2018-07-16T03:37:05.646Z,16.40
2018-07-16T03:39:34.174Z,16.30
2018-07-16T03:42:03.143Z,16.20
2018-07-16T03:44:31.759Z,16.30
2018-07-16T03:47:00.407Z,16.10
2018-07-16T03:49:28.967Z,16.20
2018-07-16T03:51:57.693Z,16.20
2018-07-16T03:54:26.233Z,16.20
2018-07-16T03:56:54.783Z,16.10
2018-07-16T03:59:23.329Z,16.20
2018-07-16T04:01:52.166Z,16.20
2018-07-16T04:04:20.677Z,16.10
2018-07-16T04:06:49.415Z,16.00
2018-07-16T04:09:17.943Z,16.00
2018-07-16T04:11:46.511Z,16.00
2018-07-16T04:14:15.004Z,16.00
2018-07-16T04:16:43.797Z,16.00
2018-07-16T04:19:12.294Z,16.00
2018-07-16T04:21:40.851Z,16.00
2018-07-16T04:24:09.404Z,16.00
2018-07-16T04:26:38.013Z,16.00
2018-07-16T04:29:07.140Z,16.00
2018-07-16T04:31:36.128Z,16.00
2018-07-16T04:34:04.722Z,16.00
2018-07-16T04:36:33.490Z,16.10
2018-07-16T04:39:02.103Z,16.10
2018-07-16T04:41:30.872Z,16.20
2018-07-16T04:43:59.423Z,16.20
2018-07-16T04:46:28.055Z,16.30
2018-07-16T04:48:56.583Z,16.40
2018-07-16T04:51:25.419Z,16.30
2018-07-16T04:53:53.942Z,16.40
2018-07-16T04:56:22.660Z,16.40
2018-07-16T04:58:51.265Z,16.60
2018-07-16T05:01:19.984Z,16.60
2018-07-16T05:03:48.484Z,16.70
2018-07-16T05:06:17.261Z,16.80
2018-07-16T05:08:45.740Z,16.90
2018-07-16T05:11:14.469Z,17.00
2018-07-16T05:13:43.027Z,17.00
2018-07-16T05:16:11.813Z,17.10
2018-07-16T05:18:40.344Z,17.20
2018-07-16T05:21:09.109Z,17.30
2018-07-16T05:23:37.710Z,17.30
2018-07-16T05:26:06.231Z,17.40
2018-07-16T05:28:34.758Z,17.50
2018-07-16T05:31:03.423Z,17.60
2018-07-16T05:33:31.938Z,17.70
2018-07-16T05:36:00.728Z,17.80
2018-07-16T05:38:29.244Z,18.00
2018-07-16T05:40:57.905Z,17.90
2018-07-16T05:43:26.483Z,18.10
2018-07-16T05:45:55.150Z,18.20
2018-07-16T05:50:52.013Z,18.40
2018-07-16T05:53:20.530Z,18.50
2018-07-16T05:55:49.102Z,18.60
2018-07-16T05:58:17.700Z,18.70
2018-07-16T06:00:46.280Z,18.80
2018-07-16T06:03:14.850Z,18.80
2018-07-16T06:05:43.388Z,18.70
2018-07-16T06:08:11.956Z,18.80
2018-07-16T06:10:40.602Z,18.80
2018-07-16T06:13:09.143Z,18.80
2018-07-16T06:15:37.905Z,18.80
2018-07-16T06:18:06.418Z,18.90
2018-07-16T06:20:35.014Z,19.00
2018-07-16T06:23:03.564Z,19.20
2018-07-16T06:25:32.372Z,19.20
2018-07-16T06:28:00.922Z,19.40
2018-07-16T06:30:29.631Z,19.40
2018-07-16T06:32:58.146Z,19.50
2018-07-16T06:35:26.723Z,19.60
2018-07-16T06:37:55.235Z,19.70
2018-07-16T06:40:24.116Z,19.70
2018-07-16T06:42:52.761Z,19.80
2018-07-16T06:45:21.471Z,19.80
2018-07-16T06:47:49.987Z,19.80
2018-07-16T06:50:18.746Z,20.00
2018-07-16T06:52:47.274Z,20.00
2018-07-16T06:55:15.973Z,20.10
2018-07-16T06:57:44.532Z,20.20
2018-07-16T07:00:13.097Z,20.20
2018-07-16T07:02:41.709Z,20.20
2018-07-16T07:05:10.488Z,20.20
2018-07-16T07:07:39.020Z,20.30
2018-07-16T07:10:07.984Z,20.40
2018-07-16T07:12:36.617Z,20.40
2018-07-16T07:15:05.224Z,20.50
2018-07-16T07:17:33.787Z,20.50
2018-07-16T07:20:02.736Z,20.70
2018-07-16T07:22:31.307Z,20.70
2018-07-16T07:25:00.046Z,20.80
2018-07-16T07:27:28.617Z,21.00
2018-07-16T07:29:57.341Z,21.00
2018-07-16T07:32:25.906Z,21.10
2018-07-16T07:34:54.717Z,21.20
2018-07-16T07:37:23.234Z,21.30
2018-07-16T07:39:51.939Z,21.40
2018-07-16T07:42:20.596Z,21.40
2018-07-16T07:44:49.308Z,21.40
2018-07-16T07:47:17.919Z,21.60
2018-07-16T07:49:46.721Z,21.70
2018-07-16T07:52:15.258Z,21.80
2018-07-16T07:54:43.996Z,21.90
2018-07-16T07:57:12.532Z,21.80
2018-07-16T07:59:41.250Z,22.00
2018-07-16T08:02:09.750Z,22.10
2018-07-16T08:04:38.568Z,22.20
2018-07-16T08:07:13.118Z,22.20
2018-07-16T08:12:12.379Z,22.60
2018-07-16T08:14:42.144Z,22.60
2018-07-16T08:17:10.708Z,22.60
2018-07-16T08:19:39.565Z,22.70
2018-07-16T08:22:08.461Z,22.80
2018-07-16T08:24:37.005Z,22.90
2018-07-16T08:27:06.064Z,22.90
2018-07-16T08:29:34.829Z,22.90
2018-07-16T08:32:03.360Z,23.00
2018-07-16T08:34:32.121Z,23.20
2018-07-16T08:37:00.717Z,23.30
2018-07-16T08:39:29.308Z,23.40
2018-07-16T08:41:57.872Z,23.40
2018-07-16T08:44:26.763Z,23.30
2018-07-16T08:46:55.304Z,23.30
2018-07-16T08:49:24.058Z,23.40
2018-07-16T08:51:52.607Z,23.40
2018-07-16T08:54:21.189Z,23.40
2018-07-16T08:56:49.776Z,23.60
2018-07-16T08:59:18.571Z,23.70
2018-07-16T09:01:47.136Z,23.60
2018-07-16T09:04:15.983Z,23.70
2018-07-16T09:06:44.545Z,23.70
2018-07-16T09:09:13.351Z,23.80
2018-07-16T09:11:42.034Z,24.00
2018-07-16T09:14:10.947Z,24.20
2018-07-16T09:16:39.506Z,24.20
2018-07-16T09:19:08.390Z,24.30
2018-07-16T09:21:36.938Z,24.30
2018-07-16T09:24:05.665Z,24.40
2018-07-16T09:26:34.814Z,24.50
2018-07-16T09:29:03.524Z,24.60
2018-07-16T09:31:32.053Z,24.70
2018-07-16T09:34:00.719Z,24.90
2018-07-16T09:36:29.343Z,25.00
2018-07-16T09:38:58.194Z,24.90
2018-07-16T09:41:26.866Z,24.80
2018-07-16T09:43:55.513Z,24.80
2018-07-16T09:46:24.051Z,24.90
2018-07-16T09:48:52.754Z,24.90
2018-07-16T09:51:21.288Z,24.70
2018-07-16T09:53:50.101Z,25.00
2018-07-16T09:56:18.670Z,25.00
2018-07-16T09:58:47.469Z,25.20
2018-07-16T10:01:21.276Z,25.40
2018-07-16T10:03:50.067Z,25.70
2018-07-16T10:06:18.670Z,25.80
2018-07-16T10:08:47.284Z,25.50
2018-07-16T10:11:15.842Z,25.70
2018-07-16T10:13:44.626Z,25.40
2018-07-16T10:16:13.169Z,25.20
2018-07-16T10:18:41.892Z,25.10
2018-07-16T10:21:10.548Z,25.10
2018-07-16T10:23:39.384Z,25.20
2018-07-16T10:26:07.931Z,25.40
2018-07-16T10:28:36.513Z,25.60
2018-07-16T10:31:05.065Z,25.90
2018-07-16T10:33:33.853Z,26.00
2018-07-16T10:36:02.434Z,25.80
2018-07-16T10:55:19.544Z,26.30
2018-07-16T10:57:48.079Z,26.30
2018-07-16T11:00:16.621Z,26.70
2018-07-16T11:02:45.468Z,26.80
2018-07-16T11:05:13.996Z,26.90
2018-07-16T11:07:42.936Z,27.10
2018-07-16T11:10:11.529Z,27.30
2018-07-16T11:12:40.204Z,27.50
2018-07-16T11:15:08.880Z,27.60
2018-07-16T11:17:37.403Z,27.00
2018-07-16T11:20:08.037Z,27.00
2018-07-16T11:22:36.842Z,27.30
2018-07-16T11:25:05.461Z,27.10
2018-07-16T11:27:34.169Z,26.70
2018-07-16T11:30:02.701Z,26.60
2018-07-16T11:32:31.364Z,26.50
2018-07-16T11:35:00.205Z,26.40
2018-07-16T11:37:28.975Z,26.30
2018-07-16T11:39:57.501Z,26.50
2018-07-16T11:42:26.089Z,26.90
2018-07-16T11:44:54.576Z,26.80
2018-07-16T11:47:23.517Z,26.60
2018-07-16T11:49:52.037Z,26.60
2018-07-16T11:52:20.846Z,26.50
2018-07-16T11:54:49.919Z,26.50
2018-07-16T11:57:18.536Z,26.40
2018-07-16T11:59:47.055Z,27.10
2018-07-16T12:02:15.955Z,26.90
2018-07-16T12:04:44.623Z,26.70
2018-07-16T12:07:13.443Z,26.40
2018-07-16T12:09:41.983Z,26.30
2018-07-16T12:12:10.768Z,26.10
2018-07-16T12:14:39.337Z,26.20
2018-07-16T12:17:08.105Z,26.20
2018-07-16T12:19:36.639Z,26.30
2018-07-16T12:22:05.483Z,26.60
2018-07-16T12:24:34.063Z,26.90
2018-07-16T12:27:02.674Z,26.90
2018-07-16T12:29:31.190Z,27.30
2018-07-16T12:31:59.857Z,27.50
2018-07-16T12:34:28.408Z,28.00
2018-07-16T12:36:57.224Z,28.40
2018-07-16T12:39:25.772Z,28.50
2018-07-16T12:41:54.696Z,28.50
2018-07-16T12:44:23.202Z,28.30
2018-07-16T12:46:51.990Z,28.70
2018-07-16T12:49:20.472Z,29.00
2018-07-16T12:51:49.164Z,29.20
2018-07-16T12:54:17.649Z,29.60
2018-07-16T12:56:46.363Z,29.80
2018-07-16T12:59:14.888Z,29.40
2018-07-16T13:01:44.408Z,29.50
2018-07-16T13:04:12.902Z,29.40
2018-07-16T13:06:41.683Z,29.20
2018-07-16T13:09:10.185Z,28.90
2018-07-16T13:11:38.949Z,28.80
2018-07-16T13:14:07.464Z,29.00
2018-07-16T13:16:36.239Z,29.10
2018-07-16T13:19:04.784Z,29.10
2018-07-16T13:21:33.517Z,28.60
2018-07-16T13:24:02.094Z,28.50
2018-07-16T13:26:30.674Z,28.40
2018-07-16T13:28:59.242Z,28.50
2018-07-16T13:31:27.960Z,28.30
2018-07-16T13:33:56.805Z,28.10
2018-07-16T13:36:25.557Z,27.40
2018-07-16T13:38:54.099Z,27.00
2018-07-16T13:41:22.909Z,26.70
2018-07-16T13:43:51.432Z,26.70
2018-07-16T13:46:20.253Z,26.70
2018-07-16T13:48:48.750Z,26.50
2018-07-16T13:51:17.687Z,26.60
2018-07-16T13:53:46.350Z,26.30
2018-07-16T13:56:15.287Z,26.10
2018-07-16T13:58:43.875Z,26.30
2018-07-16T14:01:12.561Z,26.20
2018-07-16T14:03:41.131Z,26.20
2018-07-16T14:06:09.847Z,26.50
2018-07-16T14:08:38.425Z,26.60
2018-07-16T14:11:07.364Z,26.60
2018-07-16T14:13:35.836Z,26.90
2018-07-16T14:16:04.368Z,27.10
2018-07-16T14:18:32.947Z,26.80
2018-07-16T14:21:01.795Z,26.90
2018-07-16T14:23:30.373Z,26.80
2018-07-16T14:25:58.934Z,27.00
2018-07-16T14:28:27.501Z,27.20
2018-07-16T14:30:56.068Z,27.10
2018-07-16T14:33:24.672Z,27.10
2018-07-16T14:35:53.397Z,27.00
2018-07-16T14:38:21.889Z,26.60
2018-07-16T14:40:50.680Z,26.40
2018-07-16T14:43:19.264Z,26.40
2018-07-16T14:45:48.151Z,26.60
2018-07-16T14:48:16.672Z,26.60
2018-07-16T14:50:45.425Z,26.70
2018-07-16T14:53:13.910Z,26.80
2018-07-16T14:55:42.601Z,26.80
2018-07-16T14:58:11.123Z,26.70
2018-07-16T15:00:39.655Z,26.60
2018-07-16T15:03:08.209Z,26.60
2018-07-16T15:05:36.964Z,26.60
2018-07-16T15:08:05.720Z,26.70
2018-07-16T15:10:34.391Z,26.80
2018-07-16T15:13:02.924Z,26.60
2018-07-16T15:15:31.939Z,26.50
2018-07-16T15:18:00.446Z,26.50
2018-07-16T15:20:29.375Z,26.50
2018-07-16T15:22:57.835Z,26.30
2018-07-16T15:25:27.121Z,26.40
2018-07-16T15:27:55.665Z,26.30
2018-07-16T15:30:24.519Z,26.00
2018-07-16T15:32:53.558Z,25.90
2018-07-16T15:35:22.247Z,25.80
2018-07-16T15:37:50.915Z,25.90
2018-07-16T15:40:19.534Z,25.90
2018-07-16T15:42:48.039Z,25.90
2018-07-16T15:45:16.669Z,26.10
2018-07-16T15:47:45.266Z,26.00
2018-07-16T15:50:13.809Z,26.00
2018-07-16T15:52:42.335Z,26.00
2018-07-16T15:55:11.080Z,26.10
2018-07-16T15:57:39.616Z,26.00
2018-07-16T16:00:08.530Z,25.90
2018-07-16T16:02:37.342Z,25.90
2018-07-16T16:05:06.021Z,25.80
2018-07-16T16:07:34.512Z,25.70
2018-07-16T16:10:03.940Z,25.70
2018-07-16T16:12:32.444Z,25.70
2018-07-16T16:15:01.178Z,25.60
2018-07-16T16:19:58.069Z,25.60
2018-07-16T16:22:26.458Z,25.50
2018-07-16T16:24:55.224Z,25.30
2018-07-16T16:27:23.744Z,25.30
2018-07-16T16:29:52.407Z,25.40
2018-07-16T16:32:20.913Z,25.40
2018-07-16T16:34:49.585Z,25.40
2018-07-16T16:37:18.134Z,25.20
2018-07-16T16:39:46.807Z,25.20
2018-07-16T16:42:15.341Z,25.20
2018-07-16T16:44:44.099Z,25.10
2018-07-16T16:47:12.565Z,25.20
2018-07-16T16:49:41.298Z,25.10
2018-07-16T16:52:09.780Z,25.10
2018-07-16T16:54:38.360Z,25.10
2018-07-16T16:57:06.927Z,25.00
2018-07-16T16:59:35.655Z,25.00
2018-07-16T17:02:04.177Z,24.90
2018-07-16T17:04:33.041Z,25.00
2018-07-16T17:07:01.600Z,24.90
2018-07-16T17:09:30.163Z,24.90
2018-07-16T17:11:58.719Z,24.80
2018-07-16T17:14:27.497Z,24.70
2018-07-16T17:16:56.130Z,24.70
2018-07-16T17:19:24.976Z,24.70
2018-07-16T17:21:53.501Z,24.50
2018-07-16T17:24:22.252Z,24.50
2018-07-16T17:26:50.912Z,24.40
2018-07-16T17:29:19.583Z,24.40
2018-07-16T17:31:48.130Z,24.40
2018-07-16T17:34:16.893Z,24.30
2018-07-16T17:36:45.477Z,24.20
2018-07-16T17:39:14.180Z,24.20
2018-07-16T17:41:42.687Z,24.10
2018-07-16T17:44:11.453Z,24.00
2018-07-16T17:46:40.010Z,24.00
2018-07-16T17:49:08.509Z,24.00
2018-07-16T17:51:37.072Z,24.00
2018-07-16T17:54:06.024Z,23.90
2018-07-16T17:56:34.499Z,23.90
2018-07-16T17:59:03.026Z,23.80
2018-07-16T18:01:31.602Z,23.70
2018-07-16T18:04:00.131Z,23.80
2018-07-16T18:06:28.647Z,23.70
2018-07-16T18:08:57.181Z,23.70
2018-07-16T18:11:25.695Z,23.60
2018-07-16T18:13:54.278Z,23.60
2018-07-16T18:16:23.021Z,23.60
2018-07-16T18:18:51.795Z,23.50
2018-07-16T18:21:20.308Z,23.50
2018-07-16T18:23:48.866Z,23.40
2018-07-16T18:26:17.417Z,23.40
2018-07-16T18:28:45.995Z,23.40
2018-07-16T18:31:14.586Z,23.40
2018-07-16T18:33:43.191Z,23.40
2018-07-16T18:36:11.761Z,23.40
2018-07-16T18:38:40.293Z,23.30
2018-07-16T18:41:08.826Z,23.20
2018-07-16T18:43:37.467Z,23.20
2018-07-16T18:46:06.091Z,23.20
2018-07-16T18:48:34.675Z,23.20
2018-07-16T18:51:03.230Z,23.10
2018-07-16T18:53:32.009Z,23.10
2018-07-16T18:56:00.608Z,23.10
2018-07-16T18:58:29.501Z,23.10
2018-07-16T19:00:58.092Z,23.10
2018-07-16T19:03:26.945Z,23.10
2018-07-16T19:05:55.442Z,23.00
2018-07-16T19:08:24.070Z,23.00
2018-07-16T19:10:52.608Z,22.90
2018-07-16T19:13:21.173Z,22.80
2018-07-16T19:15:49.722Z,22.90
2018-07-16T19:18:18.498Z,22.80
2018-07-16T19:20:47.138Z,22.90
2018-07-16T19:23:15.884Z,22.80
2018-07-16T19:25:44.493Z,22.80
2018-07-16T19:28:13.260Z,22.70
2018-07-16T19:30:41.841Z,22.70
2018-07-16T19:33:10.417Z,22.70
2018-07-16T19:35:38.999Z,22.60
2018-07-16T19:38:07.683Z,22.50
2018-07-16T19:40:36.227Z,22.50
2018-07-16T19:43:04.883Z,22.60
2018-07-16T19:45:33.544Z,22.60
2018-07-16T19:48:02.168Z,22.60
2018-07-16T19:50:30.832Z,22.60
2018-07-16T19:52:59.418Z,22.60
2018-07-16T19:55:27.943Z,22.60
2018-07-16T19:57:56.926Z,22.60
2018-07-16T20:00:25.596Z,22.60
2018-07-16T20:02:54.479Z,22.60
2018-07-16T20:05:22.950Z,22.50
2018-07-16T20:07:51.684Z,22.50
2018-07-16T20:10:20.196Z,22.40
2018-07-16T20:12:48.962Z,22.40
2018-07-16T20:15:18.859Z,22.50
2018-07-16T20:17:47.609Z,22.40
2018-07-16T20:20:16.251Z,22.30
2018-07-16T20:22:44.952Z,22.20
2018-07-16T20:25:13.514Z,22.10
2018-07-16T20:27:42.347Z,22.10
2018-07-16T20:30:10.907Z,22.10
2018-07-16T20:32:39.716Z,22.10
2018-07-16T20:35:08.297Z,22.00
2018-07-16T20:37:37.101Z,22.00
2018-07-16T20:40:05.828Z,22.00
2018-07-16T20:42:34.543Z,21.90
2018-07-16T20:45:03.164Z,21.90
2018-07-16T20:47:32.032Z,21.90
2018-07-16T20:50:00.561Z,21.90
2018-07-16T20:52:29.244Z,21.80
2018-07-16T20:54:57.862Z,21.80
2018-07-16T20:57:26.728Z,21.70
2018-07-16T20:59:55.260Z,21.70
2018-07-16T21:02:24.100Z,21.70
2018-07-16T21:04:52.653Z,21.70
2018-07-16T21:07:21.474Z,21.70
2018-07-16T21:09:50.092Z,21.60
2018-07-16T21:12:18.690Z,21.60
2018-07-16T21:14:47.222Z,21.50
2018-07-16T21:17:15.840Z,21.60
2018-07-16T21:19:44.359Z,21.60
2018-07-16T21:22:13.043Z,21.50
2018-07-16T21:24:41.568Z,21.50
2018-07-16T21:27:10.172Z,21.50
2018-07-16T21:29:38.705Z,21.50
2018-07-16T21:32:07.244Z,21.50
2018-07-16T21:34:35.780Z,21.50
2018-07-16T21:37:04.507Z,21.50
2018-07-16T21:39:33.044Z,21.50
2018-07-16T21:42:01.833Z,21.50
2018-07-16T21:44:30.407Z,21.50
2018-07-16T21:46:58.985Z,21.40
2018-07-16T21:49:27.568Z,21.50
2018-07-16T21:51:56.295Z,21.50
2018-07-16T21:54:24.906Z,21.40
2018-07-16T21:56:53.478Z,21.40
2018-07-16T21:59:22.176Z,21.40
2018-07-16T22:01:51.143Z,21.40
2018-07-16T22:04:19.913Z,21.40
2018-07-16T22:06:48.971Z,21.40
2018-07-16T22:11:46.578Z,21.30
2018-07-16T22:14:15.232Z,21.20
2018-07-16T22:16:44.050Z,21.20
2018-07-16T22:19:12.704Z,21.10
2018-07-16T22:21:41.620Z,21.10
2018-07-16T22:24:10.139Z,21.20
2018-07-16T22:26:38.952Z,21.10
2018-07-16T22:29:07.531Z,21.10
2018-07-16T22:31:36.529Z,21.10
2018-07-16T22:34:05.219Z,21.00
2018-07-16T22:36:33.752Z,21.10
2018-07-16T22:39:02.379Z,21.10
2018-07-16T22:41:31.169Z,21.00
2018-07-16T22:43:59.784Z,21.10
2018-07-16T22:46:28.368Z,21.00
2018-07-16T22:48:56.959Z,21.10
2018-07-16T22:51:25.719Z,20.90
2018-07-16T22:53:54.226Z,21.00
2018-07-16T22:56:23.004Z,21.00
2018-07-16T22:58:51.527Z,21.00
2018-07-16T23:01:20.268Z,21.00
2018-07-16T23:03:48.831Z,21.00
2018-07-16T23:06:17.655Z,21.00
2018-07-16T23:08:46.215Z,20.90
2018-07-16T23:11:14.922Z,20.90
2018-07-16T23:13:43.539Z,20.90
2018-07-16T23:16:12.075Z,20.80
2018-07-16T23:18:40.620Z,20.80
2018-07-16T23:21:09.107Z,20.80
2018-07-16T23:23:37.618Z,20.70
2018-07-16T23:26:06.202Z,20.70
2018-07-16T23:28:34.917Z,20.70
2018-07-16T23:31:03.428Z,20.60
2018-07-16T23:33:32.227Z,20.70
2018-07-16T23:36:00.765Z,20.60
2018-07-16T23:38:29.604Z,20.60
2018-07-16T23:40:58.173Z,20.50
2018-07-16T23:43:26.871Z,20.50
2018-07-16T23:45:55.390Z,20.40
2018-07-16T23:48:24.253Z,20.50
2018-07-16T23:50:52.780Z,20.40
2018-07-16T23:53:21.541Z,20.40
2018-07-16T23:55:50.258Z,20.40
2018-07-16T23:58:18.796Z,20.30
